createdAt,value
2023-04-12T04:40:27.806Z,100.00
2023-04-12T04:43:30.751Z,100.00
2023-04-12T04:46:34.249Z,100.00
2023-04-12T04:49:37.745Z,100.00
2023-04-12T04:52:41.001Z,100.00
2023-04-12T04:55:44.857Z,100.00
2023-04-12T04:58:48.382Z,100.00
2023-04-12T05:01:52.187Z,100.00
2023-04-12T05:04:56.394Z,100.00
2023-04-12T05:07:59.010Z,100.00
2023-04-12T05:11:03.045Z,100.00
2023-04-12T05:14:05.516Z,100.00
2023-04-12T05:17:08.000Z,100.00
2023-04-12T05:20:11.865Z,100.00
2023-04-12T05:23:14.562Z,100.00
2023-04-12T05:26:18.361Z,100.00
2023-04-12T05:29:20.945Z,100.00
2023-04-12T05:32:23.557Z,97.52
2023-04-12T05:35:26.104Z,100.00
2023-04-12T05:38:28.676Z,100.00
2023-04-12T05:41:32.511Z,96.96
2023-04-12T05:44:36.515Z,100.00
2023-04-12T05:47:39.011Z,100.00
2023-04-12T05:50:41.562Z,100.00
2023-04-12T05:53:44.149Z,100.00
2023-04-12T05:56:48.049Z,99.00
2023-04-12T05:59:50.525Z,94.05
2023-04-12T06:02:53.240Z,89.56
2023-04-12T06:05:55.957Z,89.67
2023-04-12T06:09:00.285Z,87.69
2023-04-12T06:12:04.191Z,90.21
2023-04-12T06:15:07.925Z,93.57
2023-04-12T06:18:10.514Z,99.39
2023-04-12T06:21:13.693Z,100.00
2023-04-12T06:24:16.293Z,100.00
2023-04-12T06:27:22.650Z,100.00
2023-04-12T06:30:25.111Z,100.00
2023-04-12T06:33:27.843Z,100.00
2023-04-12T06:36:30.314Z,100.00
2023-04-12T06:39:32.859Z,98.79
2023-04-12T06:42:36.907Z,98.33
2023-04-12T06:45:39.379Z,99.37
2023-04-12T06:48:42.132Z,97.47
2023-04-12T06:51:45.095Z,98.62
2023-04-12T06:54:47.597Z,95.59
2023-04-12T06:57:52.183Z,96.36
2023-04-12T07:00:54.717Z,96.21
2023-04-12T07:03:57.417Z,95.09
2023-04-12T07:07:00.305Z,92.00
2023-04-12T07:10:04.353Z,96.60
2023-04-12T07:13:08.298Z,88.59
2023-04-12T07:16:11.182Z,86.80
2023-04-12T07:19:13.725Z,87.86
2023-04-12T07:22:16.332Z,89.15
2023-04-12T07:25:19.032Z,87.90
2023-04-12T07:28:22.853Z,85.95
2023-04-12T07:31:25.357Z,83.88
2023-04-12T07:34:28.041Z,83.86
2023-04-12T07:37:30.811Z,84.68
2023-04-12T07:40:33.296Z,83.33
2023-04-12T07:43:37.132Z,80.76
2023-04-12T07:46:40.131Z,81.98
2023-04-12T07:49:42.592Z,79.84
2023-04-12T07:52:45.151Z,76.74
2023-04-12T07:55:47.817Z,78.07
2023-04-12T07:58:51.668Z,78.59
2023-04-12T08:01:54.172Z,75.54
2023-04-12T08:04:56.704Z,74.64
2023-04-12T08:07:59.202Z,73.46
2023-04-12T08:11:02.791Z,74.68
2023-04-12T08:14:06.663Z,70.94
2023-04-12T08:17:09.222Z,72.93
2023-04-12T08:20:13.014Z,70.74
2023-04-12T08:23:15.875Z,70.56
2023-04-12T08:26:18.368Z,71.45
2023-04-12T08:29:22.147Z,69.88
2023-04-12T08:32:24.737Z,70.07
2023-04-12T08:35:27.498Z,69.40
2023-04-12T08:38:44.137Z,68.28
2023-04-12T08:41:48.717Z,68.27
2023-04-12T08:44:53.712Z,64.92
2023-04-12T08:47:56.531Z,66.58
2023-04-12T08:50:59.143Z,64.15
2023-04-12T08:54:01.685Z,63.57
2023-04-12T08:57:06.520Z,63.16
2023-04-12T09:00:12.941Z,64.33
2023-04-12T09:03:15.603Z,63.21
2023-04-12T09:06:18.349Z,62.00
2023-04-12T09:09:20.827Z,63.66
2023-04-12T09:12:24.722Z,61.36
2023-04-12T09:15:28.625Z,62.39
2023-04-12T09:18:31.230Z,61.44
2023-04-12T09:21:35.059Z,59.93
2023-04-12T09:24:47.574Z,61.67
2023-04-12T09:27:51.400Z,60.32
2023-04-12T09:30:56.211Z,61.31
2023-04-12T09:34:08.757Z,58.75
2023-04-12T09:37:16.125Z,55.79
2023-04-12T09:40:24.965Z,56.48
2023-04-12T09:43:40.198Z,55.98
2023-04-12T09:46:53.068Z,58.00
2023-04-12T09:49:55.820Z,53.73
2023-04-12T09:52:59.367Z,52.64
2023-04-12T09:56:03.997Z,53.99
2023-04-12T09:59:08.033Z,53.07
2023-04-12T10:02:17.438Z,55.01
2023-04-12T10:05:21.932Z,52.73
2023-04-12T10:08:25.283Z,53.58
2023-04-12T10:11:29.381Z,52.18
2023-04-12T10:14:32.739Z,54.94
2023-04-12T10:17:38.058Z,50.76
2023-04-12T10:20:41.765Z,50.73
2023-04-12T10:23:45.488Z,50.97
2023-04-12T10:26:50.374Z,48.64
2023-04-12T10:30:33.570Z,46.91
2023-04-12T10:34:29.679Z,48.52
2023-04-12T10:37:58.744Z,53.34
2023-04-12T10:41:15.987Z,51.77
2023-04-12T10:44:26.622Z,46.99
2023-04-12T10:48:03.809Z,46.63
2023-04-12T10:51:23.083Z,44.04
2023-04-12T10:54:35.409Z,46.74
2023-04-12T10:57:45.068Z,45.83
2023-04-12T11:01:11.117Z,45.99
2023-04-12T11:04:17.036Z,46.73
2023-04-12T11:07:21.583Z,47.51
2023-04-12T11:10:25.896Z,46.01
2023-04-12T11:13:29.090Z,46.72
2023-04-12T11:16:31.597Z,44.36
2023-04-12T11:19:35.805Z,45.42
2023-04-12T11:22:40.591Z,46.16
2023-04-12T11:25:43.073Z,45.11
2023-04-12T11:28:45.617Z,45.27
2023-04-12T11:31:48.109Z,45.73
2023-04-12T11:34:51.089Z,44.61
2023-04-12T11:37:57.068Z,44.50
2023-04-12T11:40:59.676Z,45.32
2023-04-12T11:44:02.211Z,45.82
2023-04-12T11:47:05.207Z,46.33
2023-04-12T11:50:10.676Z,47.07
2023-04-12T11:53:15.940Z,46.31
2023-04-12T11:56:18.427Z,46.67
2023-04-12T11:59:20.924Z,46.34
2023-04-12T12:02:24.636Z,46.17
2023-04-12T12:05:28.372Z,44.23
2023-04-12T12:08:32.365Z,44.90
2023-04-12T12:11:34.901Z,43.98
2023-04-12T12:14:37.489Z,44.75
2023-04-12T12:17:40.039Z,44.84
2023-04-12T12:20:43.422Z,44.95
2023-04-12T12:23:48.777Z,45.80
2023-04-12T12:26:51.608Z,47.19
2023-04-12T12:29:56.410Z,47.43
2023-04-12T12:32:58.915Z,47.62
2023-04-12T12:36:01.520Z,47.56
2023-04-12T12:39:07.862Z,49.28
2023-04-12T12:42:12.970Z,48.92
2023-04-12T12:45:16.032Z,48.89
2023-04-12T12:48:21.032Z,49.82
2023-04-12T12:51:23.575Z,49.54
2023-04-12T12:54:40.170Z,50.25
2023-04-12T12:57:45.241Z,51.64
2023-04-12T13:00:51.017Z,50.74
2023-04-12T13:03:53.926Z,51.63
2023-04-12T13:06:56.575Z,52.53
2023-04-12T13:10:00.796Z,49.10
2023-04-12T13:13:03.672Z,49.55
2023-04-12T13:16:07.021Z,50.22
2023-04-12T13:19:09.500Z,49.39
2023-04-12T13:22:11.970Z,49.71
2023-04-12T13:25:15.856Z,48.65
2023-04-12T13:28:18.331Z,48.69
2023-04-12T13:31:21.092Z,48.41
2023-04-12T13:34:23.725Z,48.94
2023-04-12T13:37:26.222Z,49.08
2023-04-12T13:40:30.326Z,47.79
2023-04-12T13:43:32.812Z,48.77
2023-04-12T13:46:35.555Z,48.37
2023-04-12T13:49:38.739Z,47.62
2023-04-12T13:52:41.217Z,49.16
2023-04-12T13:55:46.356Z,47.63
2023-04-12T13:58:49.212Z,48.25
2023-04-12T14:01:51.912Z,47.01
2023-04-12T14:04:55.405Z,49.63
2023-04-12T14:07:58.053Z,49.63
2023-04-12T14:11:03.212Z,49.54
2023-04-12T14:14:05.805Z,51.12
2023-04-12T14:17:08.370Z,50.58
2023-04-12T14:20:12.478Z,52.01
2023-04-12T14:23:15.118Z,50.69
2023-04-12T14:26:19.011Z,50.98
2023-04-12T14:29:21.566Z,52.11
2023-04-12T14:32:24.099Z,53.48
2023-04-12T14:35:27.066Z,54.23
2023-04-12T14:38:29.748Z,53.49
2023-04-12T14:41:34.290Z,55.13
2023-04-12T14:44:36.780Z,53.92
2023-04-12T14:47:39.315Z,54.60
2023-04-12T14:50:42.805Z,55.15
2023-04-12T14:53:45.372Z,55.68
2023-04-12T14:56:53.858Z,56.13
2023-04-12T14:59:58.562Z,57.13
2023-04-12T15:03:01.868Z,56.43
2023-04-12T15:06:05.061Z,57.63
2023-04-12T15:09:08.191Z,58.28
2023-04-12T15:12:12.139Z,57.25
2023-04-12T15:15:15.812Z,57.00
2023-04-12T15:18:18.513Z,56.89
2023-04-12T15:21:21.092Z,56.23
2023-04-12T15:24:24.620Z,56.77
2023-04-12T15:27:30.634Z,57.68
2023-04-12T15:30:33.089Z,56.96
2023-04-12T15:35:31.902Z,56.63
2023-04-12T15:38:43.378Z,56.27
2023-04-12T15:41:46.475Z,56.72
2023-04-12T15:44:49.193Z,56.79
2023-04-12T15:47:51.839Z,56.56
2023-04-12T15:50:56.571Z,56.50
2023-04-12T15:53:59.302Z,57.67
2023-04-12T15:57:09.383Z,57.35
2023-04-12T16:00:20.919Z,57.40
2023-04-12T16:03:24.792Z,56.91
2023-04-12T16:06:31.255Z,54.23
2023-04-12T16:09:34.797Z,52.19
2023-04-12T16:12:37.302Z,54.06
2023-04-12T16:15:39.794Z,54.40
2023-04-12T16:18:43.057Z,53.99
2023-04-12T16:21:47.230Z,54.27
2023-04-12T16:24:49.706Z,53.95
2023-04-12T16:27:52.435Z,53.08
2023-04-12T16:30:55.149Z,53.82
2023-04-12T16:33:57.674Z,52.54
2023-04-12T16:37:01.660Z,53.17
2023-04-12T16:40:06.750Z,53.95
2023-04-12T16:43:10.322Z,54.82
2023-04-12T16:46:13.022Z,56.22
2023-04-12T16:49:17.582Z,56.01
2023-04-12T16:52:23.229Z,56.06
2023-04-12T16:55:25.802Z,55.91
2023-04-12T16:58:28.780Z,55.34
2023-04-12T17:01:32.178Z,56.57
2023-04-12T17:07:35.151Z,56.58
2023-04-12T17:10:37.871Z,56.39
2023-04-12T17:13:40.706Z,56.81
2023-04-12T17:16:43.421Z,58.06
2023-04-12T17:19:45.887Z,58.33
2023-04-12T17:22:50.970Z,58.77
2023-04-12T17:25:53.430Z,58.84
2023-04-12T17:30:57.073Z,60.06
2023-04-12T17:34:01.068Z,59.92
2023-04-12T17:40:25.753Z,60.08
2023-04-12T17:43:28.312Z,61.20
2023-04-12T17:46:30.905Z,62.01
2023-04-12T17:49:33.414Z,61.63
2023-04-12T17:52:36.097Z,62.81
2023-04-12T17:55:39.949Z,63.24
2023-04-12T17:58:43.988Z,63.48
2023-04-12T18:01:46.967Z,64.26
2023-04-12T18:04:49.669Z,64.26
2023-04-12T18:07:52.134Z,64.79
2023-04-12T18:10:55.992Z,65.18
2023-04-12T18:13:58.713Z,64.61
2023-04-12T18:17:01.393Z,65.39
2023-04-12T18:20:06.017Z,66.90
2023-04-12T18:23:08.563Z,67.34
2023-04-12T18:26:12.427Z,67.09
2023-04-12T18:29:17.470Z,68.18
2023-04-12T18:32:20.000Z,68.65
2023-04-12T18:35:22.554Z,69.08
2023-04-12T18:38:25.131Z,70.21
2023-04-12T18:41:29.037Z,69.88
2023-04-12T18:44:31.676Z,71.31
2023-04-12T18:47:34.239Z,73.68
2023-04-12T18:50:39.341Z,74.06
2023-04-12T18:53:42.083Z,75.57
2023-04-12T18:56:46.091Z,76.35
2023-04-12T18:59:48.955Z,77.35
2023-04-12T19:02:51.577Z,77.70
2023-04-12T19:05:54.837Z,78.82
2023-04-12T19:08:57.306Z,82.02
2023-04-12T19:12:01.237Z,85.15
2023-04-12T19:15:03.992Z,88.08
2023-04-12T19:18:06.632Z,92.45
2023-04-12T19:21:09.187Z,93.66
2023-04-12T19:24:11.688Z,96.33
2023-04-12T19:27:15.553Z,99.25
2023-04-12T19:30:18.380Z,100.00
2023-04-12T19:33:21.108Z,100.00
2023-04-12T19:36:24.381Z,100.00
2023-04-12T19:39:27.044Z,100.00
2023-04-12T19:42:31.051Z,100.00
2023-04-12T19:45:33.594Z,100.00
2023-04-12T19:48:36.700Z,100.00
2023-04-12T19:51:39.774Z,100.00
2023-04-12T19:54:42.233Z,100.00
2023-04-12T19:57:46.068Z,100.00
2023-04-12T20:00:51.822Z,100.00
2023-04-12T20:03:54.595Z,100.00
2023-04-12T20:06:57.105Z,100.00
2023-04-12T20:10:00.482Z,100.00
2023-04-12T20:13:06.842Z,100.00
2023-04-12T20:16:10.056Z,100.00
2023-04-12T20:19:13.226Z,100.00
2023-04-12T20:22:16.219Z,100.00
2023-04-12T20:28:01.472Z,100.00
2023-04-12T20:31:04.569Z,100.00
2023-04-12T20:34:07.238Z,100.00
2023-04-12T20:37:09.738Z,100.00
2023-04-12T20:40:13.188Z,100.00
2023-04-12T20:43:16.985Z,100.00
2023-04-12T20:46:25.527Z,100.00
2023-04-12T20:49:29.920Z,100.00
2023-04-12T20:52:32.535Z,100.00
2023-04-12T20:55:35.216Z,100.00
2023-04-12T20:58:38.999Z,100.00
2023-04-12T21:01:45.393Z,100.00
